Time;durP1;ratioP1;P1;durP2;ratioP2;P2;SDS_P1;SDS_P2;PMS_P1;PMS_P2;Temp;Humidity;BMP_temperature;BMP_pressure;BME280_temperature;BME280_humidity;BME280_pressure;Samples;Min_cycle;Max_cycle;Signal;HPM_P1;HPM_P2
2022/12/12 00:01:51;;;;;;;2.55;1.42;;;15.90;94.10;;;;;;7409290;19;20364;-51
2022/12/12 00:04:20;;;;;;;2.08;0.95;;;15.90;94.10;;;;;;7407686;19;20408;-53
2022/12/12 00:06:49;;;;;;;1.77;0.43;;;15.90;94.10;;;;;;7407589;19;20409;-47
2022/12/12 00:09:20;;;;;;;1.65;0.50;;;15.90;94.10;;;;;;7405768;19;19927;-52
2022/12/12 00:11:50;;;;;;;2.08;0.93;;;15.80;94.20;;;;;;7405508;19;19951;-52
2022/12/12 00:14:18;;;;;;;1.98;1.17;;;15.80;94.20;;;;;;7397975;19;19922;-49
2022/12/12 00:16:47;;;;;;;1.73;0.50;;;15.80;94.20;;;;;;7406100;19;19935;-52
2022/12/12 00:19:17;;;;;;;1.75;1.00;;;15.80;94.20;;;;;;7403794;19;19939;-51
2022/12/12 00:21:47;;;;;;;2.00;1.00;;;15.70;94.20;;;;;;7407258;19;19930;-51
2022/12/12 00:24:23;;;;;;;2.08;0.40;;;15.80;94.50;;;;;;7407791;19;19947;-52
2022/12/12 00:26:52;;;;;;;2.38;0.52;;;15.70;94.20;;;;;;7404675;19;19918;-50
2022/12/12 00:29:21;;;;;;;1.90;0.52;;;15.70;94.20;;;;;;7406867;19;19919;-50
2022/12/12 00:31:50;;;;;;;1.67;0.30;;;15.70;94.20;;;;;;7402369;19;19951;-51
2022/12/12 00:34:19;;;;;;;1.55;0.40;;;15.70;94.20;;;;;;7394019;19;19926;-51
2022/12/12 00:36:50;;;;;;;1.77;0.50;;;15.60;94.20;;;;;;7406648;19;19918;-51
2022/12/12 00:39:21;;;;;;;1.58;0.90;;;15.70;94.20;;;;;;7404379;19;19911;-52
2022/12/12 00:41:54;;;;;;;2.97;1.10;;;15.60;94.20;;;;;;7408756;19;19967;-50
2022/12/12 00:44:23;;;;;;;1.63;0.57;;;15.60;94.20;;;;;;7404068;19;19918;-51
2022/12/12 00:46:52;;;;;;;1.90;1.00;;;15.60;94.20;;;;;;7404996;19;19922;-51
2022/12/12 00:49:21;;;;;;;2.10;0.68;;;15.60;94.20;;;;;;7397893;19;20289;-50
2022/12/12 00:51:50;;;;;;;2.30;1.00;;;15.60;94.20;;;;;;7408950;19;19919;-51
2022/12/12 00:54:19;;;;;;;2.00;1.00;;;15.50;94.20;;;;;;7405783;19;19939;-51
2022/12/12 00:56:48;;;;;;;1.92;0.45;;;15.50;94.20;;;;;;7405959;19;19922;-52
2022/12/12 00:59:20;;;;;;;2.50;1.27;;;15.50;94.50;;;;;;7404988;19;20376;-49
2022/12/12 01:01:49;;;;;;;1.70;0.70;;;15.50;94.30;;;;;;7402979;19;19914;-50
2022/12/12 01:04:19;;;;;;;1.77;0.88;;;15.50;94.20;;;;;;7402680;19;19996;-47
2022/12/12 01:06:47;;;;;;;1.58;0.38;;;15.40;94.20;;;;;;7407173;19;20261;-50
2022/12/12 01:09:16;;;;;;;1.73;0.40;;;15.40;94.30;;;;;;7403466;19;19918;-51
2022/12/12 01:11:52;;;;;;;2.15;0.75;;;15.40;94.30;;;;;;7403549;19;19919;-49
2022/12/12 01:14:23;;;;;;;2.63;0.65;;;15.30;94.30;;;;;;7405484;19;19922;-50
2022/12/12 01:16:52;;;;;;;2.05;0.68;;;15.20;94.30;;;;;;7404587;19;19934;-52
2022/12/12 01:19:21;;;;;;;1.67;0.40;;;15.20;94.40;;;;;;7396135;19;19926;-50
2022/12/12 01:21:50;;;;;;;1.80;1.27;;;15.20;94.40;;;;;;7406955;19;19945;-50
2022/12/12 01:24:21;;;;;;;2.03;1.13;;;15.20;94.40;;;;;;7406128;19;19925;-51
2022/12/12 01:26:50;;;;;;;2.50;0.85;;;15.10;94.40;;;;;;7405401;19;19929;-52
2022/12/12 01:29:19;;;;;;;2.13;1.10;;;15.10;94.40;;;;;;7404244;19;19918;-51
2022/12/12 01:31:51;;;;;;;2.13;1.27;;;15.00;94.40;;;;;;7402921;19;19948;-51
2022/12/12 01:34:19;;;;;;;1.58;0.90;;;15.00;94.50;;;;;;7402723;19;19925;-51
2022/12/12 01:36:49;;;;;;;2.03;1.05;;;15.00;94.50;;;;;;7398673;19;20352;-51
2022/12/12 01:39:18;;;;;;;1.80;0.93;;;15.00;94.50;;;;;;7403967;19;19922;-50
2022/12/12 01:41:47;;;;;;;1.70;0.40;;;14.90;94.50;;;;;;7404125;19;19918;-52
2022/12/12 01:44:41;;;;;;;2.05;1.00;;;14.90;94.50;;;;;;7400564;19;19923;-51
2022/12/12 01:47:14;;;;;;;1.75;0.63;;;14.90;94.50;;;;;;7404716;19;20340;-51
2022/12/12 01:49:46;;;;;;;1.50;0.60;;;14.80;94.50;;;;;;7402688;19;19939;-49
2022/12/12 01:52:20;;;;;;;1.45;0.47;;;14.80;94.50;;;;;;7396672;19;20351;-52
2022/12/12 01:54:52;;;;;;;1.65;0.98;;;14.80;94.60;;;;;;7404306;19;19959;-50
2022/12/12 01:57:27;;;;;;;2.03;0.90;;;14.70;94.60;;;;;;7404691;19;19978;-50
2022/12/12 01:59:57;;;;;;;1.90;0.70;;;14.70;94.60;;;;;;7404540;19;20318;-51
2022/12/12 02:02:29;;;;;;;1.20;0.32;;;14.70;94.60;;;;;;7403780;19;20263;-50
2022/12/12 02:05:00;;;;;;;2.42;1.70;;;14.70;94.60;;;;;;7401789;19;19923;-52
2022/12/12 02:07:28;;;;;;;2.13;1.08;;;14.70;94.60;;;;;;7404568;19;19939;-51
2022/12/12 02:09:57;;;;;;;1.85;0.60;;;14.70;94.60;;;;;;7396416;19;19932;-50
2022/12/12 02:12:26;;;;;;;1.77;0.60;;;14.70;94.90;;;;;;7404300;19;19922;-51
2022/12/12 02:14:56;;;;;;;1.88;0.40;;;14.70;94.60;;;;;;7411068;19;19914;-50
2022/12/12 02:17:50;;;;;;;2.08;1.05;;;14.60;94.60;;;;;;7408711;19;19925;-51
2022/12/12 02:20:42;;;;;;;1.95;1.05;;;14.70;94.60;;;;;;7410251;19;19926;-51
2022/12/12 02:23:43;;;;;;;1.50;0.40;;;14.70;94.60;;;;;;7408942;19;19939;-51
2022/12/12 02:26:45;;;;;;;2.00;0.40;;;14.70;94.60;;;;;;7394916;19;20269;-49
2022/12/12 02:29:50;;;;;;;2.35;1.02;;;14.70;94.60;;;;;;7406656;19;20368;-51
2022/12/12 02:32:28;;;;;;;2.80;1.10;;;14.70;94.60;;;;;;7408695;19;19970;-49
2022/12/12 02:35:12;;;;;;;2.30;0.90;;;14.70;94.60;;;;;;7412505;19;19915;-50
2022/12/12 02:37:46;;;;;;;1.75;1.38;;;14.80;94.50;;;;;;7407637;19;19965;-51
2022/12/12 02:40:22;;;;;;;1.75;0.30;;;14.80;94.50;;;;;;7408512;19;19919;-49
2022/12/12 02:42:58;;;;;;;1.63;0.50;;;14.80;94.50;;;;;;7402518;19;19926;-50
2022/12/12 02:45:36;;;;;;;1.98;1.00;;;14.80;94.50;;;;;;7409923;19;19925;-51
2022/12/12 02:48:15;;;;;;;1.95;0.50;;;14.80;94.50;;;;;;7406044;19;19997;-58
2022/12/12 02:50:46;;;;;;;1.98;0.93;;;14.80;94.50;;;;;;7411534;19;20318;-50
2022/12/12 02:53:19;;;;;;;1.83;0.60;;;14.80;94.50;;;;;;7409362;19;19918;-51
2022/12/12 02:55:49;;;;;;;1.15;0.30;;;14.90;94.50;;;;;;7406180;19;19926;-49
2022/12/12 02:58:20;;;;;;;2.60;1.00;;;14.90;94.40;;;;;;7407401;19;19943;-51
2022/12/12 03:01:09;;;;;;;1.35;0.70;;;14.90;94.40;;;;;;7396754;19;20309;-51
2022/12/12 03:09:39;;;;;;;2.53;0.80;;;15.00;94.40;;;;;;7407057;19;20360;-51
2022/12/12 03:12:13;;;;;;;1.80;0.52;;;14.90;94.40;;;;;;7410349;19;20301;-50
2022/12/12 03:14:54;;;;;;;2.50;0.95;;;15.00;94.40;;;;;;7407047;19;19918;-47
2022/12/12 03:17:32;;;;;;;1.65;0.30;;;15.00;94.30;;;;;;7405718;19;19935;-50
2022/12/12 03:20:14;;;;;;;1.33;0.20;;;15.00;94.40;;;;;;7409754;19;19922;-50
2022/12/12 03:22:48;;;;;;;2.05;0.50;;;15.00;94.40;;;;;;7408571;19;20316;-48
2022/12/12 03:25:23;;;;;;;3.13;1.05;;;15.00;94.30;;;;;;7401928;19;19924;-50
2022/12/12 03:27:55;;;;;;;2.45;1.15;;;15.00;94.30;;;;;;7410464;19;19919;-51
2022/12/12 03:30:24;;;;;;;1.75;0.85;;;15.10;94.30;;;;;;7410584;19;19922;-53
2022/12/12 03:33:00;;;;;;;1.63;0.30;;;15.10;94.30;;;;;;7408465;19;19947;-51
2022/12/12 03:35:38;;;;;;;1.55;0.88;;;15.10;94.30;;;;;;7405923;19;19937;-47
2022/12/12 03:38:13;;;;;;;1.60;0.90;;;15.10;94.20;;;;;;7406088;19;20529;-50
2022/12/12 03:40:48;;;;;;;1.90;0.30;;;15.10;94.20;;;;;;7407452;19;19927;-47
2022/12/12 03:43:21;;;;;;;2.38;0.43;;;15.10;94.20;;;;;;7397701;19;19947;-52
2022/12/12 03:45:57;;;;;;;1.40;0.30;;;15.10;94.20;;;;;;7405764;19;19947;-51
2022/12/12 03:48:30;;;;;;;1.70;0.50;;;15.10;94.20;;;;;;7403877;19;19919;-50
2022/12/12 03:51:06;;;;;;;1.77;1.10;;;15.10;94.30;;;;;;7406814;19;19918;-51
2022/12/12 03:53:41;;;;;;;1.75;0.90;;;15.20;94.20;;;;;;7409781;19;20348;-49
2022/12/12 03:56:16;;;;;;;1.38;0.43;;;15.10;94.20;;;;;;7408042;19;20280;-52
2022/12/12 03:58:51;;;;;;;1.23;0.30;;;15.20;94.20;;;;;;7404578;19;19914;-50
2022/12/12 04:01:24;;;;;;;1.80;1.42;;;15.20;94.20;;;;;;7399580;19;19915;-51
2022/12/12 04:04:02;;;;;;;1.55;0.40;;;15.20;94.20;;;;;;7408102;19;20006;-51
2022/12/12 04:06:37;;;;;;;1.65;0.30;;;15.20;94.20;;;;;;7405970;19;20349;-50
2022/12/12 04:15:01;;;;;;;1.50;0.30;;;15.20;94.10;;;;;;7407410;19;20355;-50
2022/12/12 04:17:38;;;;;;;1.30;0.30;;;15.20;94.10;;;;;;7400486;19;19921;-49
2022/12/12 04:23:25;;;;;;;1.00;0.30;;;15.20;94.10;;;;;;7407925;19;19988;-51
2022/12/12 04:28:47;;;;;;;1.52;0.40;;;15.30;94.10;;;;;;7405192;19;19966;-49
2022/12/12 04:31:19;;;;;;;1.50;0.40;;;15.30;94.10;;;;;;7404574;19;19926;-51
2022/12/12 04:33:53;;;;;;;1.65;0.70;;;15.30;94.10;;;;;;7402917;19;20277;-50
2022/12/12 04:36:33;;;;;;;2.50;0.82;;;15.30;94.10;;;;;;7405198;19;19915;-47
2022/12/12 04:39:06;;;;;;;1.30;0.63;;;15.30;94.10;;;;;;7407143;19;19940;-52
2022/12/12 04:41:43;;;;;;;2.03;0.63;;;15.30;94.10;;;;;;7405821;19;20301;-50
2022/12/12 04:44:15;;;;;;;1.80;0.50;;;15.30;94.10;;;;;;7403304;19;19935;-50
2022/12/12 04:46:46;;;;;;;2.05;0.88;;;15.30;94.10;;;;;;7402987;19;19970;-48
2022/12/12 04:49:19;;;;;;;1.92;0.57;;;15.30;94.10;;;;;;7403165;19;19922;-50
2022/12/12 04:51:53;;;;;;;2.05;1.17;;;15.30;94.10;;;;;;7397269;19;20621;-49
2022/12/12 04:54:31;;;;;;;2.22;0.47;;;15.40;94.10;;;;;;7405319;19;19915;-50
2022/12/12 04:57:03;;;;;;;1.80;0.50;;;15.40;94.10;;;;;;7402707;19;19915;-50
2022/12/12 04:59:32;;;;;;;1.70;0.55;;;15.40;94.10;;;;;;7405039;19;19919;-51
2022/12/12 05:02:10;;;;;;;1.70;0.93;;;15.40;94.10;;;;;;7403867;19;20314;-49
2022/12/12 05:04:47;;;;;;;1.88;0.45;;;15.40;94.10;;;;;;7403961;19;19929;-51
2022/12/12 05:07:21;;;;;;;1.50;0.47;;;15.40;94.10;;;;;;7399494;19;19925;-51
2022/12/12 05:09:52;;;;;;;1.30;0.22;;;15.40;94.00;;;;;;7401814;19;19923;-50
2022/12/12 05:12:22;;;;;;;1.42;0.50;;;15.40;94.00;;;;;;7405785;19;20256;-51
2022/12/12 05:14:51;;;;;;;;;;;15.40;94.10;;;;;;7407275;19;19922;-51
2022/12/12 05:17:27;;;;;;;1.27;0.30;;;15.40;94.00;;;;;;7400887;19;19958;-52
2022/12/12 05:19:57;;;;;;;1.80;0.70;;;15.50;94.00;;;;;;7404149;19;19957;-52
2022/12/12 05:22:25;;;;;;;;;;;15.50;94.00;;;;;;7407149;19;19925;-50
2022/12/12 05:24:57;;;;;;;2.00;0.50;;;15.60;93.90;;;;;;7403510;19;19914;-52
2022/12/12 05:27:26;;;;;;;1.60;1.05;;;15.50;94.00;;;;;;7395914;19;19929;-48
2022/12/12 05:29:56;;;;;;;1.40;0.30;;;15.50;94.00;;;;;;7406291;19;19922;-50
2022/12/12 05:32:26;;;;;;;1.77;0.30;;;15.60;94.20;;;;;;7403221;19;19927;-49
2022/12/12 05:34:54;;;;;;;1.58;0.50;;;15.60;93.90;;;;;;7403856;19;19915;-49
2022/12/12 05:37:24;;;;;;;1.85;0.80;;;15.60;94.00;;;;;;7400539;19;19922;-50
2022/12/12 05:39:52;;;;;;;1.92;0.52;;;15.60;94.00;;;;;;7404642;19;19919;-47
2022/12/12 05:42:24;;;;;;;1.20;0.20;;;15.60;94.00;;;;;;7402848;19;19922;-52
2022/12/12 05:44:54;;;;;;;1.92;0.88;;;15.60;93.90;;;;;;7402155;19;19914;-51
2022/12/12 05:47:24;;;;;;;1.75;0.93;;;15.60;93.90;;;;;;7400035;19;19930;-49
2022/12/12 05:49:53;;;;;;;1.20;0.30;;;15.60;93.90;;;;;;7412311;19;19939;-51
2022/12/12 05:52:22;;;;;;;1.83;0.70;;;15.60;93.90;;;;;;7395601;19;19938;-46
2022/12/12 05:55:11;;;;;;;1.55;0.50;;;15.70;93.90;;;;;;7408305;19;19930;-51
2022/12/12 05:58:03;;;;;;;1.45;0.35;;;15.60;94.10;;;;;;7406872;19;20242;-48
2022/12/12 06:00:53;;;;;;;1.67;0.40;;;15.60;93.90;;;;;;7410146;19;19935;-50
2022/12/12 06:03:42;;;;;;;1.27;0.30;;;15.70;93.90;;;;;;7407666;19;19922;-49
2022/12/12 06:06:31;;;;;;;1.95;0.70;;;15.70;93.80;;;;;;7405302;19;19941;-50
2022/12/12 06:09:19;;;;;;;1.80;0.90;;;15.70;93.80;;;;;;7398258;19;19919;-50
2022/12/12 06:12:09;;;;;;;1.60;0.43;;;15.70;93.90;;;;;;7410664;19;19923;-51
2022/12/12 06:15:00;;;;;;;1.80;1.00;;;15.70;93.80;;;;;;7406055;19;19929;-50
2022/12/12 06:17:50;;;;;;;1.63;0.52;;;15.70;93.80;;;;;;7409495;19;19930;-52
2022/12/12 06:20:39;;;;;;;2.10;0.57;;;15.60;93.80;;;;;;7409960;19;19922;-51
2022/12/12 06:23:27;;;;;;;1.70;0.80;;;15.70;93.90;;;;;;7408391;19;19925;-51
2022/12/12 06:26:18;;;;;;;2.05;1.40;;;15.70;93.90;;;;;;7399314;19;19918;-52
2022/12/12 06:29:07;;;;;;;1.35;0.70;;;15.70;93.80;;;;;;7409937;19;19932;-50
2022/12/12 06:31:59;;;;;;;2.97;1.17;;;15.80;93.80;;;;;;7408772;19;19930;-49
2022/12/12 06:34:48;;;;;;;1.65;0.88;;;15.90;93.70;;;;;;7409231;19;20340;-50
2022/12/12 06:37:37;;;;;;;1.42;0.30;;;16.10;93.70;;;;;;7406283;19;20050;-49
2022/12/12 06:40:26;;;;;;;2.05;0.35;;;16.20;93.70;;;;;;7406149;19;19914;-50
2022/12/12 06:43:15;;;;;;;1.65;0.82;;;16.30;93.60;;;;;;7392637;19;19953;-52
2022/12/12 06:46:05;;;;;;;1.35;0.22;;;16.30;93.50;;;;;;7406442;19;19933;-50
2022/12/12 06:48:59;;;;;;;1.17;0.30;;;16.40;93.50;;;;;;7406348;19;19922;-49
2022/12/12 06:51:48;;;;;;;1.65;0.60;;;16.50;93.50;;;;;;7409593;19;19926;-51
2022/12/12 06:54:38;;;;;;;1.60;0.50;;;16.50;93.50;;;;;;7405381;19;19910;-52
2022/12/12 06:57:27;;;;;;;1.70;0.70;;;16.60;93.40;;;;;;7407961;19;19914;-51
2022/12/12 07:00:17;;;;;;;1.40;0.75;;;16.70;93.40;;;;;;7396547;19;19926;-51
2022/12/12 07:03:06;;;;;;;1.77;0.57;;;16.70;93.40;;;;;;7408100;19;19919;-48
2022/12/12 07:05:58;;;;;;;1.85;0.70;;;16.70;93.40;;;;;;7405953;19;19978;-48
2022/12/12 07:08:47;;;;;;;1.60;1.02;;;16.70;93.40;;;;;;7405205;19;20600;-51
2022/12/12 07:11:36;;;;;;;2.00;1.15;;;16.70;93.40;;;;;;7403280;19;20024;-52
2022/12/12 07:14:25;;;;;;;2.92;1.30;;;16.70;93.40;;;;;;7403755;19;19922;-62
2022/12/12 07:17:14;;;;;;;1.83;0.95;;;16.70;93.50;;;;;;7407302;19;19962;-56
2022/12/12 07:20:03;;;;;;;1.95;0.40;;;16.70;93.80;;;;;;7405238;19;19919;-57
2022/12/12 07:22:54;;;;;;;1.90;1.00;;;16.80;93.60;;;;;;7395034;19;19922;-57
2022/12/12 07:25:45;;;;;;;2.00;0.90;;;16.70;93.60;;;;;;7408631;19;19925;-57
2022/12/12 07:28:34;;;;;;;1.58;0.60;;;16.70;93.60;;;;;;7402488;19;19915;-58
2022/12/12 07:31:25;;;;;;;2.03;0.77;;;16.80;93.60;;;;;;7404460;19;20268;-58
2022/12/12 07:33:55;;;;;;;2.72;1.08;;;16.80;93.50;;;;;;7406155;19;19983;-57
2022/12/12 07:36:23;;;;;;;;;;;17.00;93.50;;;;;;7410769;19;19922;-58
2022/12/12 07:38:55;;;;;;;1.50;0.70;;;17.00;93.30;;;;;;7406218;19;19939;-57
2022/12/12 07:41:25;;;;;;;2.13;1.00;;;17.00;93.40;;;;;;7398875;19;19927;-57
2022/12/12 07:43:54;;;;;;;2.40;0.63;;;17.10;93.40;;;;;;7406936;19;19911;-57
2022/12/12 07:46:26;;;;;;;1.70;0.80;;;17.10;93.40;;;;;;7403568;19;19926;-57
2022/12/12 07:48:56;;;;;;;1.73;0.45;;;17.10;93.40;;;;;;7407678;19;19978;-58
2022/12/12 07:51:29;;;;;;;2.58;1.13;;;17.10;93.60;;;;;;7406172;19;19915;-57
2022/12/12 07:54:02;;;;;;;1.50;0.32;;;17.10;93.30;;;;;;7409767;19;19922;-57
2022/12/12 07:56:31;;;;;;;1.60;0.38;;;17.10;93.30;;;;;;7405689;19;19938;-57
2022/12/12 07:59:00;;;;;;;1.73;0.80;;;17.20;93.30;;;;;;7390596;19;19925;-56
2022/12/12 08:01:29;;;;;;;2.17;1.02;;;17.20;93.30;;;;;;7394066;19;19914;-57
2022/12/12 08:03:58;;;;;;;2.10;0.60;;;17.20;93.30;;;;;;7409629;19;19919;-56
2022/12/12 08:06:27;;;;;;;1.80;0.90;;;17.20;93.30;;;;;;7407124;19;19934;-56
2022/12/12 08:08:56;;;;;;;1.70;0.57;;;17.20;93.30;;;;;;7406242;19;20286;-57
2022/12/12 08:11:28;;;;;;;1.88;0.35;;;17.20;93.30;;;;;;7404444;19;19915;-56
2022/12/12 08:13:57;;;;;;;2.45;1.13;;;17.30;93.30;;;;;;7404999;19;19921;-56
2022/12/12 08:16:28;;;;;;;2.08;1.20;;;17.40;93.30;;;;;;7405321;19;19914;-56
2022/12/12 08:18:59;;;;;;;3.50;0.80;;;17.40;93.30;;;;;;7401646;19;19922;-56
2022/12/12 08:21:29;;;;;;;1.27;0.40;;;17.40;93.20;;;;;;7408290;19;19926;-58
2022/12/12 08:23:59;;;;;;;1.88;1.08;;;17.40;93.30;;;;;;7406005;19;19946;-57
2022/12/12 08:26:32;;;;;;;2.45;0.90;;;17.40;93.30;;;;;;7404677;19;19923;-58
2022/12/12 08:29:01;;;;;;;2.80;1.00;;;17.50;93.20;;;;;;7405283;19;20353;-57
2022/12/12 08:31:31;;;;;;;1.80;1.10;;;17.50;93.20;;;;;;7407458;19;19926;-58
2022/12/12 08:34:00;;;;;;;;;;;17.50;93.20;;;;;;7407657;19;20269;-59
2022/12/12 08:36:31;;;;;;;2.47;1.13;;;17.50;93.10;;;;;;7406075;19;20376;-57
2022/12/12 08:39:03;;;;;;;2.38;0.47;;;17.50;93.20;;;;;;7404626;19;20312;-58
2022/12/12 08:41:40;;;;;;;1.80;1.33;;;17.50;93.10;;;;;;7402410;19;19943;-58
2022/12/12 08:44:10;;;;;;;2.35;0.70;;;17.50;93.20;;;;;;7402903;19;19926;-58
2022/12/12 08:46:40;;;;;;;1.80;1.00;;;17.50;93.20;;;;;;7398490;19;19952;-56
2022/12/12 08:49:11;;;;;;;2.85;0.68;;;17.50;93.20;;;;;;7407334;19;20286;-58
2022/12/12 08:51:40;;;;;;;1.90;1.02;;;17.60;93.20;;;;;;7407917;19;19980;-56
2022/12/12 08:54:10;;;;;;;2.90;1.13;;;17.60;93.10;;;;;;7403719;19;19923;-57
2022/12/12 08:56:42;;;;;;;2.05;0.90;;;17.60;93.20;;;;;;7403759;19;19914;-57
2022/12/12 08:59:12;;;;;;;4.20;0.68;;;17.50;93.20;;;;;;7403881;19;20282;-56
2022/12/12 09:01:41;;;;;;;2.40;1.30;;;17.60;93.20;;;;;;7397791;19;19929;-56
2022/12/12 09:04:10;;;;;;;3.05;1.20;;;17.60;93.10;;;;;;7406363;19;19929;-56
2022/12/12 09:06:40;;;;;;;;;;;17.60;93.20;;;;;;7406175;19;19918;-57
2022/12/12 09:09:09;;;;;;;2.20;1.05;;;17.60;93.00;;;;;;7404686;19;19944;-56
2022/12/12 09:11:40;;;;;;;2.17;0.85;;;17.60;93.20;;;;;;7403537;19;20272;-57
2022/12/12 09:14:09;;;;;;;1.83;0.68;;;17.70;93.20;;;;;;7402483;19;20286;-56
2022/12/12 09:16:38;;;;;;;2.50;0.82;;;17.70;93.10;;;;;;7407386;19;20268;-56
2022/12/12 09:19:07;;;;;;;1.70;0.50;;;17.70;93.10;;;;;;7403159;19;19923;-57
2022/12/12 09:21:36;;;;;;;2.03;0.93;;;17.70;93.10;;;;;;7407532;19;19924;-58
2022/12/12 09:24:05;;;;;;;2.05;1.02;;;17.70;93.10;;;;;;7400947;19;19923;-56
2022/12/12 09:26:34;;;;;;;2.55;1.13;;;17.70;93.10;;;;;;7404144;19;19919;-58
2022/12/12 09:29:06;;;;;;;2.08;1.25;;;17.80;93.20;;;;;;7401015;19;19922;-56
2022/12/12 09:31:41;;;;;;;2.20;1.05;;;17.80;93.10;;;;;;7397211;19;19974;-57
2022/12/12 09:34:10;;;;;;;1.88;0.60;;;17.80;93.10;;;;;;7404068;19;19918;-56
2022/12/12 09:36:39;;;;;;;1.95;0.77;;;17.80;93.10;;;;;;7401026;19;20291;-57
2022/12/12 09:39:08;;;;;;;;;;;17.80;93.10;;;;;;7403773;19;19922;-57
2022/12/12 09:41:38;;;;;;;2.17;0.50;;;17.80;93.00;;;;;;7402703;19;19918;-57
2022/12/12 09:44:14;;;;;;;1.77;0.60;;;17.80;93.40;;;;;;7404185;19;20262;-56
2022/12/12 09:46:47;;;;;;;2.15;1.15;;;17.90;93.10;;;;;;7399024;19;20342;-57
2022/12/12 09:49:25;;;;;;;2.15;0.90;;;17.90;93.10;;;;;;7399780;19;19914;-57
2022/12/12 09:51:56;;;;;;;2.10;0.57;;;17.90;93.10;;;;;;7405709;19;19923;-57
2022/12/12 09:54:28;;;;;;;1.80;1.20;;;17.90;93.10;;;;;;7403386;19;19918;-57
2022/12/12 09:57:20;;;;;;;1.92;1.15;;;17.90;93.10;;;;;;7401993;19;19919;-57
2022/12/12 09:59:59;;;;;;;2.40;1.20;;;18.00;93.00;;;;;;7402288;19;19919;-57
2022/12/12 10:02:42;;;;;;;2.33;0.60;;;18.00;93.00;;;;;;7401595;19;19952;-56
2022/12/12 10:05:21;;;;;;;1.63;0.50;;;18.00;93.00;;;;;;7397793;19;19917;-56
2022/12/12 10:07:59;;;;;;;2.08;0.80;;;18.00;93.10;;;;;;7402240;19;19943;-56
2022/12/12 10:10:33;;;;;;;1.63;0.50;;;18.00;93.00;;;;;;7392952;19;20249;-58
2022/12/12 10:13:24;;;;;;;1.73;0.60;;;18.00;93.00;;;;;;7404356;19;19957;-55
2022/12/12 10:15:59;;;;;;;1.80;0.63;;;18.00;93.00;;;;;;7401248;19;20379;-58
2022/12/12 10:18:33;;;;;;;2.10;0.57;;;18.10;93.00;;;;;;7405868;19;19915;-57
2022/12/12 10:21:06;;;;;;;2.10;1.25;;;18.10;93.00;;;;;;7401381;19;20356;-57
2022/12/12 10:23:40;;;;;;;1.75;0.52;;;18.10;93.00;;;;;;7399670;19;19919;-56
2022/12/12 10:26:30;;;;;;;1.65;0.68;;;18.10;93.00;;;;;;7395673;19;19943;-57
2022/12/12 10:29:22;;;;;;;2.15;1.00;;;18.10;93.00;;;;;;7401107;19;19922;-57
2022/12/12 10:32:24;;;;;;;2.17;0.75;;;18.10;93.00;;;;;;7398989;19;19934;-58
2022/12/12 10:35:20;;;;;;;2.05;0.50;;;18.10;93.00;;;;;;7404152;19;20280;-58
2022/12/12 10:38:02;;;;;;;2.53;1.50;;;18.10;93.00;;;;;;7409010;19;19929;-58
2022/12/12 10:40:43;;;;;;;2.95;0.85;;;18.10;93.00;;;;;;7408094;19;19918;-58
2022/12/12 10:43:18;;;;;;;1.60;0.50;;;18.20;93.00;;;;;;7409477;19;19976;-57
2022/12/12 10:46:07;;;;;;;1.83;1.10;;;18.20;93.00;;;;;;7407096;19;19911;-57
2022/12/12 10:48:38;;;;;;;2.10;1.10;;;18.20;92.90;;;;;;7409532;19;19923;-56
2022/12/12 10:51:11;;;;;;;1.83;1.17;;;18.20;92.90;;;;;;7400738;19;19928;-56
2022/12/12 10:53:42;;;;;;;3.00;1.48;;;18.20;92.90;;;;;;7408049;19;19923;-54
2022/12/12 10:56:13;;;;;;;2.95;1.52;;;18.30;93.00;;;;;;7409057;19;19947;-55
2022/12/12 10:58:44;;;;;;;4.93;0.90;;;18.30;92.90;;;;;;7407576;19;19926;-52
2022/12/12 11:01:19;;;;;;;4.25;0.93;;;18.40;93.00;;;;;;7410168;19;20257;-54
2022/12/12 11:03:52;;;;;;;2.75;1.75;;;18.30;93.00;;;;;;7407437;19;19914;-54
2022/12/12 11:06:32;;;;;;;2.25;1.23;;;18.40;92.90;;;;;;7399553;19;19929;-55
2022/12/12 11:09:08;;;;;;;3.85;0.75;;;18.40;93.00;;;;;;7399059;19;20359;-57
2022/12/12 11:11:37;;;;;;;6.07;1.00;;;18.40;92.90;;;;;;7408237;19;19915;-54
2022/12/12 11:14:24;;;;;;;2.05;1.33;;;18.40;93.00;;;;;;7409230;19;19931;-55
2022/12/12 11:16:53;;;;;;;2.50;1.30;;;18.50;93.00;;;;;;7409117;19;19924;-54
2022/12/12 11:19:27;;;;;;;4.07;0.90;;;18.50;93.00;;;;;;7384722;19;20329;-54
2022/12/12 11:21:57;;;;;;;3.58;1.00;;;18.50;93.10;;;;;;7387833;19;20002;-49
2022/12/12 11:24:33;;;;;;;2.90;1.00;;;18.50;93.00;;;;;;7397851;19;19922;-55
2022/12/12 11:27:08;;;;;;;3.63;1.30;;;18.50;93.10;;;;;;7407074;19;19926;-52
2022/12/12 11:29:45;;;;;;;1.77;0.50;;;18.50;93.10;;;;;;7404605;19;19930;-54
2022/12/12 11:32:17;;;;;;;2.22;1.10;;;18.50;93.10;;;;;;7405656;19;19930;-51
2022/12/12 11:34:51;;;;;;;2.30;0.60;;;18.50;93.10;;;;;;7406876;19;19925;-49
2022/12/12 11:37:22;;;;;;;2.45;1.25;;;18.40;93.10;;;;;;7405876;19;20344;-55
2022/12/12 11:39:53;;;;;;;3.60;0.70;;;18.50;93.20;;;;;;7405079;19;19918;-51
2022/12/12 11:42:26;;;;;;;2.70;1.10;;;18.50;93.20;;;;;;7405750;19;19935;-47
2022/12/12 11:45:01;;;;;;;3.83;1.15;;;18.50;93.20;;;;;;7403181;19;20336;-49
2022/12/12 11:47:50;;;;;;;;;;;18.50;93.20;;;;;;7404282;19;20333;-46
2022/12/12 11:50:47;;;;;;;2.17;1.48;;;18.50;93.20;;;;;;7099384;19;3008519;-47
2022/12/12 11:53:39;;;;;;;4.25;1.55;;;18.50;93.20;;;;;;7401760;19;19915;-45
2022/12/12 11:56:37;;;;;;;1.55;0.73;;;18.60;93.20;;;;;;7400715;19;19926;-45
2022/12/12 11:59:25;;;;;;;2.33;1.10;;;18.60;93.20;;;;;;7398577;19;19927;-48
2022/12/12 12:01:59;;;;;;;2.28;1.10;;;18.60;93.20;;;;;;7404290;19;19914;-43
2022/12/12 12:04:41;;;;;;;2.45;1.27;;;18.70;93.20;;;;;;7403367;19;19926;-45
2022/12/12 12:07:29;;;;;;;5.30;0.77;;;18.70;93.20;;;;;;7403306;19;19939;-45
2022/12/12 12:10:03;;;;;;;;;;;18.70;93.20;;;;;;7401101;19;19944;-43
2022/12/12 12:12:48;;;;;;;2.65;1.30;;;18.70;93.10;;;;;;7404023;19;20012;-45
2022/12/12 12:15:33;;;;;;;2.47;0.90;;;18.70;93.20;;;;;;7403870;19;20260;-45
2022/12/12 12:18:24;;;;;;;2.22;0.55;;;18.80;93.10;;;;;;7392959;19;19923;-45
2022/12/12 12:21:25;;;;;;;1.95;1.10;;;18.80;93.10;;;;;;7401683;19;19914;-43
2022/12/12 12:24:04;;;;;;;2.83;1.70;;;18.80;93.10;;;;;;7404136;19;19946;-44
2022/12/12 12:26:38;;;;;;;1.65;0.60;;;18.90;93.10;;;;;;7403214;19;19918;-43
2022/12/12 12:29:51;;;;;;;2.25;0.68;;;18.90;93.10;;;;;;7403210;19;19918;-45
2022/12/12 12:32:32;;;;;;;1.85;0.65;;;18.90;93.10;;;;;;7400701;19;19923;-44
2022/12/12 12:35:17;;;;;;;2.25;1.20;;;18.90;93.10;;;;;;7393642;19;20014;-44
2022/12/12 12:37:56;;;;;;;2.38;1.02;;;18.90;93.10;;;;;;7404445;19;19918;-44
2022/12/12 12:40:43;;;;;;;2.08;1.05;;;18.90;93.40;;;;;;7404037;19;19926;-44
2022/12/12 12:43:28;;;;;;;2.60;1.40;;;18.90;93.10;;;;;;7402350;19;19918;-44
2022/12/12 12:46:02;;;;;;;2.58;1.17;;;19.00;93.10;;;;;;7405119;19;19930;-43
2022/12/12 12:48:36;;;;;;;3.67;1.30;;;19.00;93.10;;;;;;7403841;19;19929;-44
2022/12/12 12:51:11;;;;;;;2.83;1.42;;;19.00;93.10;;;;;;7396063;19;19919;-45
2022/12/12 12:53:47;;;;;;;2.20;1.40;;;19.00;93.10;;;;;;7403434;19;19921;-43
2022/12/12 12:56:24;;;;;;;3.92;1.40;;;19.10;93.10;;;;;;7402950;19;19918;-44
2022/12/12 12:58:55;;;;;;;3.03;0.82;;;19.10;93.00;;;;;;7399625;19;19915;-45
2022/12/12 13:01:29;;;;;;;1.88;1.10;;;19.10;93.10;;;;;;7404529;19;19918;-46
2022/12/12 13:04:04;;;;;;;1.73;0.70;;;19.10;93.00;;;;;;7403692;19;20333;-45
2022/12/12 13:06:43;;;;;;;2.85;1.20;;;19.10;93.00;;;;;;7404680;19;20365;-46
2022/12/12 13:09:24;;;;;;;1.75;0.98;;;19.10;92.90;;;;;;7403306;19;19918;-44
2022/12/12 13:12:03;;;;;;;3.00;1.83;;;19.10;93.00;;;;;;7403118;19;19922;-44
2022/12/12 13:14:42;;;;;;;2.60;1.38;;;19.10;93.00;;;;;;7392898;19;19926;-45
2022/12/12 13:17:18;;;;;;;2.33;0.80;;;19.20;92.90;;;;;;7402259;19;19922;-47
2022/12/12 13:19:52;;;;;;;2.35;1.30;;;19.20;93.00;;;;;;7403437;19;19930;-43
2022/12/12 13:22:29;;;;;;;3.38;1.20;;;19.20;92.90;;;;;;7404514;19;20445;-46
2022/12/12 13:25:05;;;;;;;2.78;1.80;;;19.20;92.90;;;;;;7403895;19;19930;-45
2022/12/12 13:27:44;;;;;;;2.33;1.20;;;19.30;92.90;;;;;;7403451;19;19922;-45
2022/12/12 13:30:22;;;;;;;1.83;0.90;;;19.30;92.90;;;;;;7393389;19;19961;-48
2022/12/12 13:33:32;;;;;;;1.85;0.60;;;19.30;92.90;;;;;;7402765;19;19943;-47
2022/12/12 13:36:10;;;;;;;1.83;1.15;;;19.30;92.80;;;;;;7398751;19;19930;-45
2022/12/12 13:38:40;;;;;;;2.78;1.75;;;19.30;92.90;;;;;;7402216;19;19998;-46
2022/12/12 13:41:11;;;;;;;2.22;1.70;;;19.40;92.90;;;;;;7400800;19;19918;-45
2022/12/12 13:43:51;;;;;;;1.98;1.25;;;19.40;92.90;;;;;;7401083;19;19961;-42
2022/12/12 13:46:40;;;;;;;2.15;1.23;;;19.40;92.90;;;;;;7403815;19;19985;-42
2022/12/12 13:49:24;;;;;;;1.95;1.10;;;19.40;92.90;;;;;;7402900;19;19922;-44
2022/12/12 13:51:53;;;;;;;1.88;1.10;;;19.40;92.80;;;;;;7403411;19;19914;-43
2022/12/12 13:54:56;;;;;;;2.05;1.10;;;19.40;92.90;;;;;;7403886;19;19922;-43